Time;durP1;ratioP1;P1;durP2;ratioP2;P2;SDS_P1;SDS_P2;PMS_P1;PMS_P2;Temp;Humidity;BMP_temperature;BMP_pressure;BME280_temperature;BME280_humidity;BME280_pressure;Samples;Min_cycle;Max_cycle;Signal;HPM_P1;HPM_P2
2022/01/08 00:00:29;;;;;;;;;106.00;95.75;4.60;63.20;;;;;;5049738;28;8762;-66
2022/01/08 00:02:55;;;;;;;;;97.00;79.00;4.70;62.90;;;;;;5049955;28;8779;-68
2022/01/08 00:05:22;;;;;;;;;102.25;81.25;4.50;64.10;;;;;;5051876;28;8771;-66
2022/01/08 00:07:48;;;;;;;;;98.00;85.50;4.70;63.70;;;;;;5053791;28;8795;-66
2022/01/08 00:10:14;;;;;;;;;102.00;87.00;4.90;62.70;;;;;;5053605;28;8810;-67
2022/01/08 00:12:40;;;;;;;;;98.00;79.25;5.20;61.90;;;;;;5053211;28;8793;-67
2022/01/08 00:15:07;;;;;;;;;101.00;83.00;5.00;62.60;;;;;;5046066;28;8801;-66
2022/01/08 00:17:36;;;;;;;;;97.75;80.75;5.20;61.70;;;;;;5037854;28;8825;-69
2022/01/08 00:20:05;;;;;;;;;99.25;82.50;5.20;61.80;;;;;;5045577;28;8809;-66
2022/01/08 00:22:30;;;;;;;;;93.75;76.75;4.90;63.10;;;;;;5038254;28;8900;-67
2022/01/08 00:24:56;;;;;;;;;91.00;71.00;5.00;63.10;;;;;;5054589;28;9536;-68
2022/01/08 00:27:23;;;;;;;;;96.50;76.50;5.20;62.60;;;;;;5046220;28;8818;-68
2022/01/08 00:29:50;;;;;;;;;95.00;80.25;5.20;62.70;;;;;;5034547;28;8844;-68
2022/01/08 00:32:17;;;;;;;;;96.00;72.25;5.50;61.50;;;;;;5034809;28;8777;-68
2022/01/08 00:34:43;;;;;;;;;90.00;70.50;5.60;60.70;;;;;;5033975;28;8777;-68
2022/01/08 00:37:09;;;;;;;;;90.75;69.25;5.50;61.20;;;;;;5034447;28;8810;-68
2022/01/08 00:39:36;;;;;;;;;83.75;67.00;5.60;61.00;;;;;;5034478;28;8777;-67
2022/01/08 00:42:03;;;;;;;;;87.50;70.00;5.40;61.40;;;;;;5034422;28;8757;-67
2022/01/08 00:44:28;;;;;;;;;91.50;70.00;5.40;61.50;;;;;;5034437;28;8761;-67
2022/01/08 00:46:54;;;;;;;;;87.75;68.50;5.10;62.60;;;;;;5034688;28;8768;-67
2022/01/08 00:49:20;;;;;;;;;91.00;71.75;4.90;63.70;;;;;;5034161;28;8857;-67
2022/01/08 00:51:46;;;;;;;;;89.25;73.50;5.10;63.40;;;;;;5034240;28;8857;-67
2022/01/08 00:54:12;;;;;;;;;82.00;63.75;5.20;63.40;;;;;;5034590;28;8778;-67
2022/01/08 00:56:37;;;;;;;;;86.00;68.75;5.50;62.20;;;;;;5034506;28;8769;-66
2022/01/08 00:59:04;;;;;;;;;79.25;63.50;5.60;61.30;;;;;;5035053;28;8781;-68
2022/01/08 01:01:30;;;;;;;;;88.50;70.00;5.30;62.30;;;;;;5038362;28;8762;-67
2022/01/08 01:03:56;;;;;;;;;78.00;63.00;5.40;62.20;;;;;;5038395;28;8764;-67
2022/01/08 01:06:22;;;;;;;;;94.25;70.00;5.60;61.90;;;;;;5038023;28;8862;-67
2022/01/08 01:08:49;;;;;;;;;86.00;66.50;5.20;62.40;;;;;;5051253;28;8908;-67
2022/01/08 01:11:15;;;;;;;;;77.25;63.25;5.20;63.00;;;;;;5042553;28;8805;-67
2022/01/08 01:13:40;;;;;;;;;85.00;68.50;5.00;63.90;;;;;;5038397;28;8765;-67
2022/01/08 01:16:08;;;;;;;;;90.25;69.25;5.10;63.40;;;;;;5038240;28;8762;-67
2022/01/08 01:18:35;;;;;;;;;92.00;70.50;5.20;63.30;;;;;;5038101;28;8754;-66
2022/01/08 01:21:02;;;;;;;;;95.25;75.25;5.40;62.80;;;;;;5037783;28;8777;-67
2022/01/08 01:23:36;;;;;;;;;86.25;70.75;5.30;62.40;;;;;;5037918;28;8770;-67
2022/01/08 01:26:02;;;;;;;;;106.50;94.00;5.30;62.60;;;;;;5038209;28;8769;-68
2022/01/08 01:42:09;;;;;;;;;139.50;129.50;5.80;60.80;;;;;;5037791;28;9388;-67
2022/01/08 01:47:32;;;;;;;;;110.25;107.25;6.10;59.80;;;;;;5037580;28;8742;-67
2022/01/08 01:49:58;;;;;;;;;116.75;105.75;6.00;60.30;;;;;;5037454;28;8805;-68
2022/01/08 01:52:24;;;;;;;;;122.00;113.00;6.10;60.30;;;;;;5037444;28;8816;-67
2022/01/08 01:54:50;;;;;;;;;112.25;108.50;6.00;60.90;;;;;;5037406;28;8754;-67
2022/01/08 01:57:17;;;;;;;;;109.00;101.25;6.00;60.70;;;;;;5037535;28;8793;-68
2022/01/08 01:59:44;;;;;;;;;112.25;103.50;6.00;60.60;;;;;;5037563;28;8766;-67
2022/01/08 02:02:09;;;;;;;;;106.00;97.50;6.10;60.20;;;;;;5037340;28;8827;-68
2022/01/08 02:04:36;;;;;;;;;118.25;107.50;6.30;59.90;;;;;;5037265;28;8805;-68
2022/01/08 02:07:02;;;;;;;;;104.75;91.25;6.00;60.10;;;;;;5037338;28;9624;-67
2022/01/08 02:09:28;;;;;;;;;82.50;65.00;6.00;60.80;;;;;;5037083;28;8859;-67
2022/01/08 02:11:59;;;;;;;;;100.00;80.25;5.90;60.20;;;;;;5037076;28;8778;-66
2022/01/08 02:14:26;;;;;;;;;91.25;71.75;5.90;60.90;;;;;;5037366;28;8781;-66
2022/01/08 02:16:52;;;;;;;;;93.75;76.75;6.20;60.60;;;;;;5037278;28;8762;-69
2022/01/08 02:19:19;;;;;;;;;77.00;58.25;6.30;60.00;;;;;;5037186;28;9463;-66
2022/01/08 02:21:52;;;;;;;;;76.25;61.00;5.80;60.90;;;;;;5037220;28;8773;-67
2022/01/08 02:24:19;;;;;;;;;75.00;62.25;5.60;62.80;;;;;;5036921;28;8773;-66
2022/01/08 02:26:45;;;;;;;;;72.00;56.50;5.30;63.60;;;;;;5036629;28;8758;-66
2022/01/08 02:29:15;;;;;;;;;66.50;53.50;5.30;64.40;;;;;;5036764;28;8782;-66
2022/01/08 02:32:04;;;;;;;;;73.00;59.25;5.10;65.50;;;;;;5036629;28;8774;-66
2022/01/08 02:34:30;;;;;;;;;70.50;58.00;5.30;65.00;;;;;;5036700;28;8892;-66
2022/01/08 02:36:57;;;;;;;;;76.75;61.50;5.30;65.10;;;;;;5036777;28;8786;-66
2022/01/08 02:39:24;;;;;;;;;82.50;65.25;5.40;64.60;;;;;;5036829;28;8883;-67
2022/01/08 02:41:55;;;;;;;;;80.75;64.50;5.40;64.30;;;;;;5036536;28;8862;-67
2022/01/08 02:44:21;;;;;;;;;78.50;63.75;5.30;65.50;;;;;;5036846;28;8835;-66
2022/01/08 02:46:47;;;;;;;;;78.25;61.75;5.20;64.90;;;;;;5036487;28;8778;-67
2022/01/08 02:49:13;;;;;;;;;78.33;62.67;5.20;64.80;;;;;;5035328;28;8797;-66
2022/01/08 02:51:39;;;;;;;;;76.00;59.75;5.40;64.60;;;;;;5036605;28;8778;-66
2022/01/08 02:54:09;;;;;;;;;78.50;62.00;5.60;64.30;;;;;;5036413;28;9427;-66
2022/01/08 02:56:47;;;;;;;;;70.00;56.50;5.40;65.00;;;;;;5036250;28;8770;-66
2022/01/08 02:59:14;;;;;;;;;71.25;57.50;5.30;65.10;;;;;;5036276;28;8781;-66
2022/01/08 03:01:40;;;;;;;;;75.75;59.50;5.20;65.40;;;;;;5036219;28;8815;-66
2022/01/08 03:04:08;;;;;;;;;81.00;64.00;5.10;66.20;;;;;;5036134;28;8778;-67
2022/01/08 03:06:34;;;;;;;;;75.50;61.25;5.10;66.00;;;;;;5036513;28;8753;-66
2022/01/08 03:08:59;;;;;;;;;73.00;60.50;5.30;65.70;;;;;;5036391;28;9459;-67
2022/01/08 03:11:25;;;;;;;;;78.00;62.25;5.40;64.90;;;;;;5035982;28;8825;-66
2022/01/08 03:13:51;;;;;;;;;70.75;59.75;5.20;65.20;;;;;;5035941;28;8796;-67
2022/01/08 03:16:17;;;;;;;;;92.00;75.75;5.50;64.60;;;;;;5036141;28;8777;-67
2022/01/08 03:18:44;;;;;;;;;108.00;101.00;5.50;64.30;;;;;;5035827;28;8773;-67
2022/01/08 03:21:15;;;;;;;;;110.25;101.50;5.30;64.10;;;;;;5035774;28;8803;-67
2022/01/08 03:23:51;;;;;;;;;107.00;96.25;5.00;66.10;;;;;;5034317;28;8781;-67
2022/01/08 03:26:19;;;;;;;;;124.25;116.50;5.10;66.30;;;;;;5035742;28;8803;-67
2022/01/08 03:28:45;;;;;;;;;118.75;107.25;5.20;65.70;;;;;;5035466;28;8920;-67
2022/01/08 03:31:12;;;;;;;;;113.50;101.75;5.10;65.70;;;;;;5035588;28;8797;-67
2022/01/08 03:33:38;;;;;;;;;120.25;114.50;4.90;65.80;;;;;;5035834;28;8777;-68
2022/01/08 03:36:05;;;;;;;;;114.00;102.75;5.10;65.90;;;;;;5035450;28;8866;-66
2022/01/08 03:38:31;;;;;;;;;120.00;108.50;5.30;65.10;;;;;;5035695;28;8802;-66
2022/01/08 03:40:57;;;;;;;;;126.50;114.75;5.60;63.50;;;;;;5035637;28;8757;-66
2022/01/08 03:43:24;;;;;;;;;128.50;118.00;5.60;63.10;;;;;;5035370;28;8746;-66
2022/01/08 03:45:50;;;;;;;;;122.50;111.25;5.70;62.90;;;;;;5035340;28;8757;-66
2022/01/08 03:48:27;;;;;;;;;139.50;127.50;5.10;65.10;;;;;;5035475;28;8900;-66
2022/01/08 03:50:54;;;;;;;;;130.50;114.75;5.20;65.00;;;;;;5035169;28;8856;-66
2022/01/08 03:53:20;;;;;;;;;125.00;118.75;5.10;65.90;;;;;;5035431;28;8766;-66
2022/01/08 03:55:46;;;;;;;;;127.25;116.25;5.00;66.00;;;;;;5035229;28;8792;-66
2022/01/08 03:58:11;;;;;;;;;118.50;102.75;4.60;67.80;;;;;;5035109;28;8847;-67
2022/01/08 04:00:38;;;;;;;;;125.25;115.75;4.70;66.90;;;;;;5035122;28;8758;-66
2022/01/08 04:03:03;;;;;;;;;124.50;114.00;4.90;66.50;;;;;;5035281;28;8769;-67
2022/01/08 04:05:29;;;;;;;;;130.25;120.50;5.00;66.60;;;;;;5034974;28;9428;-67
2022/01/08 04:07:55;;;;;;;;;124.25;112.00;4.80;67.40;;;;;;5035046;28;8825;-67
2022/01/08 04:10:21;;;;;;;;;112.00;101.25;5.00;67.00;;;;;;5034828;28;8821;-66
2022/01/08 04:12:52;;;;;;;;;129.25;117.50;4.90;66.50;;;;;;5035095;28;8785;-67
2022/01/08 04:17:52;;;;;;;;;120.75;109.00;4.90;66.80;;;;;;5035161;28;8746;-67
2022/01/08 04:20:19;;;;;;;;;131.75;122.75;5.00;66.80;;;;;;5035097;28;8847;-66
2022/01/08 04:22:48;;;;;;;;;121.25;107.50;5.10;67.00;;;;;;5034955;28;8847;-66
2022/01/08 04:25:15;;;;;;;;;129.75;120.25;5.40;65.70;;;;;;5034719;28;8789;-66
2022/01/08 04:27:41;;;;;;;;;140.00;131.00;5.20;66.90;;;;;;5034445;28;8805;-66
2022/01/08 04:30:07;;;;;;;;;128.50;116.75;5.30;66.70;;;;;;5034492;28;8798;-66
2022/01/08 04:32:33;;;;;;;;;121.75;115.50;5.50;66.00;;;;;;5034600;28;9411;-66
2022/01/08 04:34:59;;;;;;;;;113.25;107.75;5.50;65.50;;;;;;5033909;28;8762;-66
2022/01/08 04:37:25;;;;;;;;;118.75;110.00;5.40;65.40;;;;;;5034412;28;9451;-67
2022/01/08 04:39:50;;;;;;;;;106.25;101.00;5.60;65.40;;;;;;5034709;28;8839;-67
2022/01/08 04:42:16;;;;;;;;;123.00;115.25;5.50;65.20;;;;;;5034448;28;8782;-67
2022/01/08 04:44:42;;;;;;;;;114.00;103.00;5.70;64.80;;;;;;5034352;28;8784;-66
2022/01/08 04:47:08;;;;;;;;;109.75;101.25;5.50;64.80;;;;;;5033371;28;8785;-66
2022/01/08 04:49:34;;;;;;;;;131.00;118.00;5.10;67.30;;;;;;5034208;28;9448;-66
2022/01/08 04:51:59;;;;;;;;;133.00;118.25;5.00;68.30;;;;;;5034598;28;8777;-66
2022/01/08 04:54:25;;;;;;;;;124.25;117.75;4.80;68.40;;;;;;5034296;28;8820;-66
2022/01/08 04:56:51;;;;;;;;;108.25;97.75;4.80;69.60;;;;;;5034266;28;8782;-67
2022/01/08 04:59:17;;;;;;;;;119.75;104.25;4.90;68.80;;;;;;5034506;28;8781;-67
2022/01/08 05:01:44;;;;;;;;;121.00;106.75;4.90;69.90;;;;;;5034506;28;9432;-66
2022/01/08 05:04:10;;;;;;;;;131.00;113.50;4.80;69.60;;;;;;5034213;28;8750;-66
2022/01/08 05:06:36;;;;;;;;;109.50;101.00;4.90;69.30;;;;;;5034197;28;8792;-66
2022/01/08 05:09:03;;;;;;;;;118.50;110.50;4.90;69.60;;;;;;5033267;28;8928;-66
2022/01/08 05:11:29;;;;;;;;;113.25;104.75;4.90;69.10;;;;;;5034124;28;8832;-66
2022/01/08 05:13:56;;;;;;;;;96.75;85.25;4.90;69.70;;;;;;5034150;28;8801;-66
2022/01/08 05:16:23;;;;;;;;;106.75;98.50;4.90;69.70;;;;;;5034396;28;8809;-66
2022/01/08 05:18:51;;;;;;;;;111.50;100.75;4.80;70.10;;;;;;5034125;28;8770;-67
2022/01/08 05:23:43;;;;;;;;;102.50;93.50;4.60;71.30;;;;;;5034352;28;8774;-66
2022/01/08 05:26:09;;;;;;;;;109.50;99.50;4.70;71.30;;;;;;5034283;28;8777;-66
2022/01/08 05:28:35;;;;;;;;;108.75;96.50;4.80;70.80;;;;;;5033875;28;8940;-67
2022/01/08 05:31:01;;;;;;;;;114.25;104.50;4.80;70.50;;;;;;5034184;28;8811;-67
2022/01/08 05:33:27;;;;;;;;;114.00;101.75;5.10;69.60;;;;;;5034126;28;8786;-66
2022/01/08 05:35:52;;;;;;;;;113.75;109.75;5.30;68.20;;;;;;5033959;28;8844;-67
2022/01/08 05:38:18;;;;;;;;;118.00;99.75;5.10;67.80;;;;;;5034153;28;8920;-66
2022/01/08 05:40:44;;;;;;;;;139.25;121.50;5.20;68.80;;;;;;5032866;28;8765;-67
2022/01/08 05:43:10;;;;;;;;;130.50;114.50;5.40;67.90;;;;;;5033782;28;8865;-66
2022/01/08 05:45:36;;;;;;;;;127.75;113.75;5.20;68.40;;;;;;5034174;28;8814;-66
2022/01/08 05:48:01;;;;;;;;;121.00;112.25;5.30;68.10;;;;;;5037819;28;8762;-66
2022/01/08 05:50:27;;;;;;;;;126.75;114.25;5.50;67.40;;;;;;5037467;28;8809;-66
2022/01/08 05:52:53;;;;;;;;;118.50;107.00;5.50;67.10;;;;;;5037730;28;8754;-66
2022/01/08 05:55:19;;;;;;;;;111.75;110.00;5.40;67.50;;;;;;5048452;28;8783;-67
2022/01/08 05:57:44;;;;;;;;;112.00;93.25;5.40;67.50;;;;;;5045847;28;8800;-67
2022/01/08 06:00:10;;;;;;;;;103.25;90.25;5.10;67.50;;;;;;5044927;28;8896;-67
2022/01/08 06:02:37;;;;;;;;;107.75;95.50;5.10;68.60;;;;;;5036300;28;8798;-66
2022/01/08 06:05:04;;;;;;;;;113.25;102.50;5.10;67.70;;;;;;5037510;28;8781;-66
2022/01/08 06:07:30;;;;;;;;;112.25;101.25;5.30;67.20;;;;;;5037311;28;8816;-66
2022/01/08 06:09:56;;;;;;;;;105.25;95.50;5.50;66.10;;;;;;5037294;28;8821;-67
2022/01/08 06:12:22;;;;;;;;;105.75;100.50;5.70;65.80;;;;;;5037361;28;8782;-66
2022/01/08 06:14:47;;;;;;;;;107.75;98.50;5.80;64.90;;;;;;5037393;28;9419;-66
2022/01/08 06:17:13;;;;;;;;;108.25;98.00;5.70;65.20;;;;;;5037138;28;8781;-69
2022/01/08 06:19:39;;;;;;;;;113.25;105.25;5.50;65.80;;;;;;5036970;28;8797;-71
2022/01/08 06:22:05;;;;;;;;;110.00;100.50;5.40;66.60;;;;;;5037194;28;8793;-72
2022/01/08 06:24:30;;;;;;;;;116.75;105.75;5.40;66.90;;;;;;5037095;28;8834;-70
2022/01/08 06:26:56;;;;;;;;;118.50;108.00;5.50;66.70;;;;;;5036859;28;8816;-69
2022/01/08 06:29:22;;;;;;;;;134.00;119.25;5.50;66.70;;;;;;5037001;28;8765;-72
2022/01/08 06:31:48;;;;;;;;;122.75;105.50;5.40;67.40;;;;;;5036849;28;8777;-70
2022/01/08 06:34:14;;;;;;;;;132.00;122.25;5.30;68.30;;;;;;5036745;28;8838;-70
2022/01/08 06:36:40;;;;;;;;;123.25;113.25;5.50;67.70;;;;;;5036646;28;8774;-71
2022/01/08 06:39:06;;;;;;;;;128.25;116.25;5.70;66.70;;;;;;5041449;28;8831;-71
2022/01/08 06:41:31;;;;;;;;;126.00;114.25;5.80;65.60;;;;;;5043864;28;8786;-69
2022/01/08 06:43:57;;;;;;;;;126.25;109.50;5.90;65.80;;;;;;5047074;28;8778;-72
2022/01/08 06:46:24;;;;;;;;;144.25;127.50;6.00;64.80;;;;;;5036704;28;9517;-66
2022/01/08 06:48:49;;;;;;;;;151.25;128.75;6.00;64.50;;;;;;5044226;28;8919;-67
2022/01/08 06:51:15;;;;;;;;;143.00;128.00;6.10;64.30;;;;;;5038645;28;9697;-67
2022/01/08 06:53:41;;;;;;;;;133.75;122.75;6.20;63.60;;;;;;5043630;28;8793;-67
2022/01/08 06:56:07;;;;;;;;;141.00;128.75;5.80;64.60;;;;;;5044406;28;8777;-67
2022/01/08 06:58:34;;;;;;;;;143.50;132.00;5.70;65.30;;;;;;5046034;28;8801;-67
2022/01/08 07:01:00;;;;;;;;;150.00;129.50;6.00;65.10;;;;;;5038525;28;9452;-68
2022/01/08 07:03:26;;;;;;;;;150.25;136.25;5.60;65.80;;;;;;5047895;28;8799;-67
2022/01/08 07:05:52;;;;;;;;;139.25;120.00;5.50;67.20;;;;;;5043960;28;8900;-68
2022/01/08 07:08:17;;;;;;;;;125.00;114.00;5.70;66.20;;;;;;5038767;28;8819;-67
2022/01/08 07:10:43;;;;;;;;;125.25;115.00;5.60;66.30;;;;;;5054916;28;8815;-67
2022/01/08 07:13:09;;;;;;;;;130.00;116.25;5.50;66.60;;;;;;5053437;28;8785;-67
2022/01/08 07:15:35;;;;;;;;;107.25;97.50;5.60;65.90;;;;;;5054370;28;8856;-69
2022/01/08 07:18:01;;;;;;;;;127.25;119.25;5.60;65.90;;;;;;5056110;28;8763;-69
2022/01/08 07:20:26;;;;;;;;;125.00;108.25;5.30;67.10;;;;;;5047020;28;8785;-68
2022/01/08 07:22:52;;;;;;;;;116.50;103.50;5.00;69.10;;;;;;5043045;28;8796;-71
2022/01/08 07:25:18;;;;;;;;;100.75;85.00;5.00;69.70;;;;;;5040152;28;8794;-66
2022/01/08 07:27:44;;;;;;;;;112.50;99.25;5.20;69.10;;;;;;5043401;28;8835;-68
2022/01/08 07:30:10;;;;;;;;;108.00;98.25;5.40;67.60;;;;;;5035624;28;8836;-68
2022/01/08 07:32:48;;;;;;;;;113.25;102.00;5.30;68.40;;;;;;5034474;28;8808;-69
2022/01/08 07:35:15;;;;;;;;;107.75;100.50;4.20;74.70;;;;;;5035722;28;8789;-68
2022/01/08 07:37:43;;;;;;;;;108.75;100.75;4.20;76.60;;;;;;5035755;28;9614;-68
2022/01/08 07:40:10;;;;;;;;;104.00;98.25;4.60;74.10;;;;;;5035467;28;8781;-68
2022/01/08 07:42:36;;;;;;;;;107.25;99.25;4.40;74.50;;;;;;5035675;28;8785;-67
2022/01/08 07:45:03;;;;;;;;;113.00;100.75;4.30;75.70;;;;;;5035406;28;8793;-67
2022/01/08 07:47:29;;;;;;;;;107.00;100.25;4.60;72.20;;;;;;5035615;28;8764;-70
2022/01/08 07:49:55;;;;;;;;;101.25;93.75;4.70;72.90;;;;;;5035438;28;8806;-68
2022/01/08 07:52:20;;;;;;;;;111.50;108.00;4.80;71.60;;;;;;5035205;28;8781;-68
2022/01/08 07:54:46;;;;;;;;;115.50;108.00;4.70;71.80;;;;;;5035373;28;8885;-67
2022/01/08 07:57:12;;;;;;;;;113.50;101.50;4.60;72.60;;;;;;5035394;28;8860;-68
2022/01/08 07:59:38;;;;;;;;;116.00;106.50;4.90;70.70;;;;;;5035062;28;8852;-66
2022/01/08 08:02:03;;;;;;;;;106.75;98.50;4.90;70.30;;;;;;5035012;28;8863;-64
2022/01/08 08:04:29;;;;;;;;;114.75;105.00;5.30;68.40;;;;;;5034946;28;8786;-67
2022/01/08 08:06:55;;;;;;;;;101.75;87.00;5.00;68.70;;;;;;5035091;28;8769;-68
2022/01/08 08:09:21;;;;;;;;;116.25;106.00;4.60;70.40;;;;;;5034719;28;8812;-68
2022/01/08 08:11:46;;;;;;;;;110.75;102.50;4.90;69.40;;;;;;5034900;28;8784;-67
2022/01/08 08:14:12;;;;;;;;;115.25;104.00;5.30;67.80;;;;;;5035065;28;8778;-70
2022/01/08 08:16:38;;;;;;;;;116.75;109.75;5.60;66.00;;;;;;5034720;28;8781;-65
2022/01/08 08:19:04;;;;;;;;;117.50;110.25;5.40;67.10;;;;;;5034712;28;8765;-68
2022/01/08 08:21:30;;;;;;;;;119.25;103.50;5.50;66.20;;;;;;5034741;28;8796;-67
2022/01/08 08:23:56;;;;;;;;;126.25;113.75;5.70;65.40;;;;;;5034712;28;8896;-68
2022/01/08 08:26:22;;;;;;;;;114.50;104.00;5.40;66.20;;;;;;5034670;28;8769;-66
2022/01/08 08:28:48;;;;;;;;;124.00;118.00;5.70;66.20;;;;;;5034440;28;8806;-67
2022/01/08 08:31:14;;;;;;;;;123.50;114.50;5.90;64.90;;;;;;5034526;28;8794;-67
2022/01/08 08:33:39;;;;;;;;;124.00;112.00;5.50;66.20;;;;;;5034556;28;8778;-67
2022/01/08 08:36:05;;;;;;;;;111.50;99.00;5.40;65.70;;;;;;5034436;28;8797;-64
2022/01/08 08:38:32;;;;;;;;;128.00;114.75;4.70;69.90;;;;;;5034094;28;8813;-63
2022/01/08 08:40:58;;;;;;;;;128.25;116.75;5.00;70.10;;;;;;5034313;28;8897;-64
2022/01/08 08:43:24;;;;;;;;;138.25;122.00;5.00;68.50;;;;;;5034440;28;8847;-64
2022/01/08 08:45:50;;;;;;;;;130.00;118.00;4.80;70.40;;;;;;5034228;28;8766;-65
2022/01/08 08:48:16;;;;;;;;;105.75;95.75;5.00;69.60;;;;;;5034387;28;8797;-64
2022/01/08 08:50:43;;;;;;;;;114.75;104.25;4.90;68.80;;;;;;5034273;28;8802;-64
2022/01/08 08:53:09;;;;;;;;;118.25;106.50;5.00;69.30;;;;;;5033676;28;8887;-64
2022/01/08 08:55:35;;;;;;;;;118.75;105.25;5.00;69.80;;;;;;5034224;28;8972;-64
2022/01/08 08:58:01;;;;;;;;;102.75;92.50;5.00;70.20;;;;;;5034528;28;8765;-63
2022/01/08 09:00:27;;;;;;;;;107.50;89.50;5.10;68.80;;;;;;5034098;28;8855;-64
2022/01/08 09:02:53;;;;;;;;;103.25;92.50;5.20;68.60;;;;;;5034419;28;8880;-64
2022/01/08 09:05:18;;;;;;;;;105.00;97.75;5.10;68.80;;;;;;5033960;28;9388;-64
2022/01/08 09:07:44;;;;;;;;;112.25;99.25;5.20;69.20;;;;;;5033439;28;8943;-64
2022/01/08 09:10:11;;;;;;;;;105.50;93.00;5.30;68.60;;;;;;5033840;28;8801;-64
2022/01/08 09:12:39;;;;;;;;;104.00;94.75;5.60;67.20;;;;;;5033912;28;8843;-64
2022/01/08 09:15:06;;;;;;;;;100.25;86.25;5.70;66.80;;;;;;5034302;28;8777;-64
2022/01/08 09:17:33;;;;;;;;;98.00;83.25;5.50;67.90;;;;;;5033968;28;8750;-64
2022/01/08 09:19:59;;;;;;;;;101.50;81.25;5.00;69.60;;;;;;5034484;28;8766;-64
2022/01/08 09:22:25;;;;;;;;;100.50;80.00;4.70;72.00;;;;;;5037507;28;8778;-64
2022/01/08 09:24:53;;;;;;;;;93.00;77.75;4.60;72.50;;;;;;5037941;28;8782;-63
2022/01/08 09:27:19;;;;;;;;;90.75;69.50;5.00;71.10;;;;;;5050412;28;8799;-64
2022/01/08 09:29:45;;;;;;;;;94.25;72.75;4.80;71.00;;;;;;5056672;28;8858;-64
2022/01/08 09:32:10;;;;;;;;;92.50;72.50;4.20;75.80;;;;;;5058021;28;8771;-64
2022/01/08 09:34:37;;;;;;;;;92.50;78.50;4.40;75.10;;;;;;5057938;28;8767;-63
2022/01/08 09:37:04;;;;;;;;;90.00;72.00;4.30;75.50;;;;;;5056152;28;8835;-65
2022/01/08 09:39:30;;;;;;;;;84.75;67.25;3.90;78.80;;;;;;5054224;28;8839;-64
2022/01/08 09:41:56;;;;;;;;;84.25;67.00;4.00;77.90;;;;;;5057285;28;8771;-63
2022/01/08 09:44:23;;;;;;;;;85.25;67.50;4.10;77.90;;;;;;5056732;28;8791;-63
2022/01/08 09:46:49;;;;;;;;;86.25;67.75;3.90;79.80;;;;;;5056548;28;9401;-64
2022/01/08 09:49:14;;;;;;;;;83.75;66.50;4.10;78.00;;;;;;5057657;28;8787;-64
2022/01/08 09:51:40;;;;;;;;;79.75;64.25;4.20;77.30;;;;;;5057594;28;8807;-68
2022/01/08 09:54:06;;;;;;;;;86.00;66.75;4.40;76.70;;;;;;5056746;28;9655;-67
2022/01/08 09:56:32;;;;;;;;;81.50;64.50;4.70;74.30;;;;;;5056474;28;8767;-66
2022/01/08 09:59:00;;;;;;;;;82.00;62.75;4.50;75.30;;;;;;5056785;28;8771;-67
2022/01/08 10:01:34;;;;;;;;;78.75;63.00;4.60;76.00;;;;;;5056965;28;8821;-66
2022/01/08 10:04:02;;;;;;;;;81.00;62.50;4.00;78.90;;;;;;5056114;28;8759;-65
2022/01/08 10:06:33;;;;;;;;;77.75;61.50;4.00;80.40;;;;;;5057244;28;8791;-65
2022/01/08 10:09:00;;;;;;;;;77.00;60.25;4.30;77.00;;;;;;5056160;28;8803;-66
2022/01/08 10:11:27;;;;;;;;;83.50;66.50;4.40;78.20;;;;;;5057010;28;8822;-65
2022/01/08 10:14:07;;;;;;;;;83.00;65.00;4.50;76.70;;;;;;5056904;28;8771;-66
2022/01/08 10:19:28;;;;;;;;;77.75;62.75;4.20;81.30;;;;;;5056921;28;8799;-66
2022/01/08 10:21:55;;;;;;;;;83.25;65.50;4.20;78.10;;;;;;5057105;28;8763;-67
2022/01/08 10:24:29;;;;;;;;;76.75;59.50;4.60;77.30;;;;;;5055638;28;8789;-65
2022/01/08 10:27:07;;;;;;;;;90.00;69.75;5.10;72.60;;;;;;5056388;28;8845;-67
2022/01/08 10:29:34;;;;;;;;;91.50;72.00;5.20;71.60;;;;;;5056503;28;8805;-66
2022/01/08 10:32:00;;;;;;;;;93.25;72.00;4.90;73.00;;;;;;5055597;28;8795;-67
2022/01/08 10:34:29;;;;;;;;;100.00;85.25;5.20;71.50;;;;;;5056893;28;8787;-66
2022/01/08 10:36:54;;;;;;;;;105.00;91.75;4.90;72.60;;;;;;5056506;28;8782;-67
2022/01/08 10:39:21;;;;;;;;;105.25;92.00;4.90;72.50;;;;;;5056682;28;8783;-66
2022/01/08 10:41:48;;;;;;;;;222.75;207.50;4.90;73.10;;;;;;5056601;28;8893;-66
2022/01/08 10:44:19;;;;;;;;;288.00;257.50;4.30;75.30;;;;;;5056237;28;8852;-65
2022/01/08 10:47:10;;;;;;;;;127.75;121.25;4.30;77.70;;;;;;5056384;28;8891;-66
2022/01/08 10:50:00;;;;;;;;;106.00;93.50;4.60;75.60;;;;;;5050270;28;8771;-66
2022/01/08 10:52:26;;;;;;;;;115.00;102.00;4.60;73.90;;;;;;5056269;28;8817;-67
2022/01/08 10:55:02;;;;;;;;;108.00;101.00;4.90;72.80;;;;;;5056544;28;8763;-67
2022/01/08 10:57:33;;;;;;;;;101.00;84.25;5.10;72.50;;;;;;5056258;28;8779;-67
2022/01/08 10:59:59;;;;;;;;;96.75;77.50;5.20;71.30;;;;;;5056122;28;8789;-65
2022/01/08 11:02:28;;;;;;;;;99.75;82.75;5.10;69.80;;;;;;5056080;28;8775;-68
2022/01/08 11:04:55;;;;;;;;;96.50;81.25;4.90;71.90;;;;;;5055912;28;8775;-67
2022/01/08 11:07:23;;;;;;;;;97.50;81.50;4.70;72.60;;;;;;5055178;28;8841;-66
2022/01/08 11:09:55;;;;;;;;;101.00;80.50;4.30;77.50;;;;;;5055826;28;8818;-67
2022/01/08 11:12:29;;;;;;;;;96.75;80.75;4.40;76.30;;;;;;5055393;28;9330;-66
2022/01/08 11:15:22;;;;;;;;;90.50;71.50;4.70;76.40;;;;;;5052422;28;8775;-67
2022/01/08 11:17:56;;;;;;;;;96.50;79.00;4.70;74.10;;;;;;5053948;28;8767;-68
2022/01/08 11:20:32;;;;;;;;;96.50;78.00;4.80;74.20;;;;;;5054468;28;8779;-68
2022/01/08 11:23:02;;;;;;;;;91.25;72.75;4.20;76.90;;;;;;5052650;28;8786;-70
2022/01/08 11:25:32;;;;;;;;;86.00;67.00;4.50;78.20;;;;;;5054260;28;8795;-65
2022/01/08 11:28:11;;;;;;;;;112.75;100.00;4.90;76.40;;;;;;5054093;28;8868;-66
2022/01/08 11:30:44;;;;;;;;;107.00;97.50;5.30;74.90;;;;;;5053111;28;8802;-65
2022/01/08 11:33:17;;;;;;;;;112.75;101.75;5.20;74.50;;;;;;5054241;28;8756;-66
2022/01/08 11:35:45;;;;;;;;;103.25;88.75;5.10;74.40;;;;;;5055471;28;8874;-65
2022/01/08 11:38:14;;;;;;;;;93.00;72.50;4.90;75.90;;;;;;5054338;28;8794;-65
2022/01/08 11:40:43;;;;;;;;;94.00;78.00;4.70;74.20;;;;;;5053563;28;8763;-66
2022/01/08 11:43:12;;;;;;;;;103.00;87.25;4.40;76.50;;;;;;5054418;28;8818;-64
2022/01/08 11:46:00;;;;;;;;;117.00;103.50;4.80;76.90;;;;;;5055289;28;8767;-66
2022/01/08 11:48:43;;;;;;;;;101.75;89.75;4.70;77.10;;;;;;5054466;28;8779;-65
2022/01/08 11:51:19;;;;;;;;;99.00;85.25;4.90;76.20;;;;;;5054720;28;8810;-65
2022/01/08 11:53:48;;;;;;;;;101.25;92.00;5.00;75.10;;;;;;5055088;28;8791;-64
2022/01/08 11:56:36;;;;;;;;;101.75;87.00;4.50;78.20;;;;;;5055299;28;8779;-65
2022/01/08 11:59:15;;;;;;;;;98.75;78.00;4.40;79.30;;;;;;5053896;28;9500;-65
2022/01/08 12:01:44;;;;;;;;;89.00;72.25;4.40;79.40;;;;;;5052199;28;9550;-65
2022/01/08 12:04:32;;;;;;;;;91.75;70.75;4.40;79.40;;;;;;5054828;28;8799;-65
2022/01/08 12:07:18;;;;;;;;;93.75;77.50;4.50;78.70;;;;;;5054981;28;8755;-65
2022/01/08 12:09:44;;;;;;;;;98.25;80.75;4.40;80.60;;;;;;5054704;28;8840;-64
2022/01/08 12:12:10;;;;;;;;;98.25;79.50;4.20;80.40;;;;;;5054809;28;8866;-65
2022/01/08 12:14:36;;;;;;;;;93.50;72.50;4.20;83.00;;;;;;5054584;28;8794;-65
2022/01/08 12:17:12;;;;;;;;;97.00;77.25;4.60;80.40;;;;;;5054511;28;8790;-65
2022/01/08 12:19:59;;;;;;;;;100.00;79.00;4.70;78.00;;;;;;5054585;28;8767;-70
2022/01/08 12:22:24;;;;;;;;;84.50;66.00;4.80;77.00;;;;;;5054589;28;8763;-64
2022/01/08 12:24:53;;;;;;;;;96.50;75.25;5.00;76.50;;;;;;5052915;28;8771;-64
2022/01/08 12:27:43;;;;;;;;;87.75;67.75;5.00;76.10;;;;;;5054353;28;8917;-64
2022/01/08 12:30:18;;;;;;;;;104.00;82.75;5.00;76.50;;;;;;5054417;28;8829;-64
2022/01/08 12:32:48;;;;;;;;;98.50;82.00;4.90;76.20;;;;;;5054721;28;8751;-63
2022/01/08 12:35:15;;;;;;;;;89.50;68.75;4.70;78.10;;;;;;5054985;28;8986;-63
2022/01/08 12:37:44;;;;;;;;;93.75;71.75;4.90;76.40;;;;;;5054159;28;8929;-63
2022/01/08 12:40:12;;;;;;;;;88.75;68.50;4.90;75.00;;;;;;5054343;28;8771;-63
2022/01/08 12:42:43;;;;;;;;;95.50;76.00;4.90;75.50;;;;;;5054229;28;8782;-64
2022/01/08 12:45:12;;;;;;;;;101.50;87.00;4.90;76.10;;;;;;5054398;28;8917;-64
2022/01/08 12:47:46;;;;;;;;;103.25;89.25;4.90;76.30;;;;;;5054267;28;8751;-69
2022/01/08 12:50:32;;;;;;;;;100.75;88.25;5.50;74.40;;;;;;5054324;28;8790;-66
2022/01/08 12:53:03;;;;;;;;;101.75;85.25;5.70;71.30;;;;;;5054222;28;8872;-64
2022/01/08 12:55:34;;;;;;;;;91.00;71.75;5.60;71.50;;;;;;5053755;28;9429;-64
2022/01/08 12:58:00;;;;;;;;;84.75;66.25;5.40;71.70;;;;;;5054269;28;8767;-65
2022/01/08 13:00:26;;;;;;;;;83.00;64.00;5.00;74.30;;;;;;5054154;28;8809;-64
2022/01/08 13:02:53;;;;;;;;;78.00;62.00;4.60;76.30;;;;;;5054328;28;8775;-66